sensor_id;sensor_type;location;lat;lon;timestamp;P1;durP1;ratioP1;P2;durP2;ratioP2
3050;SDS011;1535;51.098;6.414;2023-06-04T00:00:46;11.50;;;11.10;;
3050;SDS011;1535;51.098;6.414;2023-06-04T00:03:13;11.50;;;11.10;;
3050;SDS011;1535;51.098;6.414;2023-06-04T00:05:40;12.40;;;11.90;;
3050;SDS011;1535;51.098;6.414;2023-06-04T00:08:07;11.40;;;11.00;;
3050;SDS011;1535;51.098;6.414;2023-06-04T00:10:34;11.20;;;10.80;;
3050;SDS011;1535;51.098;6.414;2023-06-04T00:13:01;12.80;;;12.30;;
3050;SDS011;1535;51.098;6.414;2023-06-04T00:15:28;12.40;;;11.90;;
3050;SDS011;1535;51.098;6.414;2023-06-04T00:17:56;11.80;;;11.40;;
3050;SDS011;1535;51.098;6.414;2023-06-04T00:20:23;11.10;;;10.70;;
3050;SDS011;1535;51.098;6.414;2023-06-04T00:22:50;11.50;;;11.10;;
3050;SDS011;1535;51.098;6.414;2023-06-04T00:25:17;12.80;;;12.30;;
3050;SDS011;1535;51.098;6.414;2023-06-04T00:27:43;11.83;;;11.43;;
3050;SDS011;1535;51.098;6.414;2023-06-04T00:30:11;11.77;;;11.37;;
3050;SDS011;1535;51.098;6.414;2023-06-04T00:32:39;11.70;;;11.30;;
3050;SDS011;1535;51.098;6.414;2023-06-04T00:35:08;11.80;;;11.40;;
3050;SDS011;1535;51.098;6.414;2023-06-04T00:37:35;12.67;;;12.17;;
3050;SDS011;1535;51.098;6.414;2023-06-04T00:40:02;12.07;;;11.67;;
3050;SDS011;1535;51.098;6.414;2023-06-04T00:42:30;11.87;;;11.47;;
3050;SDS011;1535;51.098;6.414;2023-06-04T00:44:57;11.30;;;10.90;;
3050;SDS011;1535;51.098;6.414;2023-06-04T00:47:24;12.00;;;11.60;;
3050;SDS011;1535;51.098;6.414;2023-06-04T00:49:53;12.23;;;11.73;;
3050;SDS011;1535;51.098;6.414;2023-06-04T00:52:25;12.03;;;11.63;;
3050;SDS011;1535;51.098;6.414;2023-06-04T00:54:52;12.57;;;12.07;;
3050;SDS011;1535;51.098;6.414;2023-06-04T00:57:20;12.17;;;11.77;;
3050;SDS011;1535;51.098;6.414;2023-06-04T00:59:47;11.90;;;11.50;;
3050;SDS011;1535;51.098;6.414;2023-06-04T01:02:15;11.67;;;11.27;;
3050;SDS011;1535;51.098;6.414;2023-06-04T01:04:46;12.10;;;11.70;;
3050;SDS011;1535;51.098;6.414;2023-06-04T01:07:26;11.33;;;10.93;;
3050;SDS011;1535;51.098;6.414;2023-06-04T01:09:53;11.83;;;11.43;;
3050;SDS011;1535;51.098;6.414;2023-06-04T01:12:20;11.57;;;11.17;;
3050;SDS011;1535;51.098;6.414;2023-06-04T01:14:48;12.47;;;11.97;;
3050;SDS011;1535;51.098;6.414;2023-06-04T01:17:17;11.37;;;10.97;;
3050;SDS011;1535;51.098;6.414;2023-06-04T01:19:54;11.40;;;11.00;;
3050;SDS011;1535;51.098;6.414;2023-06-04T01:22:33;12.20;;;11.80;;
3050;SDS011;1535;51.098;6.414;2023-06-04T01:25:04;11.97;;;11.57;;
3050;SDS011;1535;51.098;6.414;2023-06-04T01:27:34;11.10;;;10.70;;
3050;SDS011;1535;51.098;6.414;2023-06-04T01:30:02;12.07;;;11.67;;
3050;SDS011;1535;51.098;6.414;2023-06-04T01:32:30;11.70;;;11.30;;
3050;SDS011;1535;51.098;6.414;2023-06-04T01:34:57;11.20;;;10.80;;
3050;SDS011;1535;51.098;6.414;2023-06-04T01:37:24;12.60;;;12.10;;
3050;SDS011;1535;51.098;6.414;2023-06-04T01:39:53;12.20;;;11.80;;
3050;SDS011;1535;51.098;6.414;2023-06-04T01:42:20;12.53;;;12.03;;
3050;SDS011;1535;51.098;6.414;2023-06-04T01:44:47;12.40;;;11.90;;
3050;SDS011;1535;51.098;6.414;2023-06-04T01:47:15;12.40;;;11.90;;
3050;SDS011;1535;51.098;6.414;2023-06-04T01:49:41;11.70;;;11.30;;
3050;SDS011;1535;51.098;6.414;2023-06-04T01:52:08;12.03;;;11.63;;
3050;SDS011;1535;51.098;6.414;2023-06-04T01:54:36;11.60;;;11.20;;
3050;SDS011;1535;51.098;6.414;2023-06-04T01:57:06;11.10;;;10.70;;
3050;SDS011;1535;51.098;6.414;2023-06-04T01:59:33;11.00;;;10.60;;
3050;SDS011;1535;51.098;6.414;2023-06-04T02:02:01;11.00;;;10.60;;
3050;SDS011;1535;51.098;6.414;2023-06-04T02:04:29;12.60;;;12.00;;
3050;SDS011;1535;51.098;6.414;2023-06-04T02:06:55;12.60;;;11.60;;
3050;SDS011;1535;51.098;6.414;2023-06-04T02:09:24;12.10;;;11.70;;
3050;SDS011;1535;51.098;6.414;2023-06-04T02:11:52;11.67;;;11.27;;
3050;SDS011;1535;51.098;6.414;2023-06-04T02:14:20;11.47;;;11.07;;
3050;SDS011;1535;51.098;6.414;2023-06-04T02:16:47;11.63;;;11.23;;
3050;SDS011;1535;51.098;6.414;2023-06-04T02:19:15;11.47;;;11.07;;
3050;SDS011;1535;51.098;6.414;2023-06-04T02:21:43;11.40;;;11.00;;
3050;SDS011;1535;51.098;6.414;2023-06-04T02:24:10;11.13;;;10.63;;
3050;SDS011;1535;51.098;6.414;2023-06-04T02:26:37;11.60;;;11.20;;
3050;SDS011;1535;51.098;6.414;2023-06-04T02:29:05;16.67;;;11.30;;
3050;SDS011;1535;51.098;6.414;2023-06-04T02:31:35;11.00;;;10.60;;
3050;SDS011;1535;51.098;6.414;2023-06-04T02:34:02;11.50;;;11.10;;
3050;SDS011;1535;51.098;6.414;2023-06-04T02:36:29;10.97;;;10.57;;
3050;SDS011;1535;51.098;6.414;2023-06-04T02:38:56;11.03;;;10.63;;
3050;SDS011;1535;51.098;6.414;2023-06-04T02:41:23;11.80;;;11.40;;
3050;SDS011;1535;51.098;6.414;2023-06-04T02:43:50;11.23;;;10.83;;
3050;SDS011;1535;51.098;6.414;2023-06-04T02:46:17;11.57;;;11.17;;
3050;SDS011;1535;51.098;6.414;2023-06-04T02:48:46;11.17;;;10.77;;
3050;SDS011;1535;51.098;6.414;2023-06-04T02:51:12;10.90;;;10.50;;
3050;SDS011;1535;51.098;6.414;2023-06-04T02:53:42;11.60;;;11.20;;
3050;SDS011;1535;51.098;6.414;2023-06-04T02:56:10;10.73;;;10.33;;
3050;SDS011;1535;51.098;6.414;2023-06-04T02:58:37;11.40;;;11.00;;
3050;SDS011;1535;51.098;6.414;2023-06-04T03:01:16;12.63;;;12.13;;
3050;SDS011;1535;51.098;6.414;2023-06-04T03:03:47;10.60;;;10.20;;
3050;SDS011;1535;51.098;6.414;2023-06-04T03:06:14;10.40;;;10.00;;
3050;SDS011;1535;51.098;6.414;2023-06-04T03:08:42;9.93;;;9.63;;
3050;SDS011;1535;51.098;6.414;2023-06-04T03:11:10;10.00;;;9.70;;
3050;SDS011;1535;51.098;6.414;2023-06-04T03:13:37;10.30;;;9.93;;
3050;SDS011;1535;51.098;6.414;2023-06-04T03:16:05;11.30;;;10.90;;
3050;SDS011;1535;51.098;6.414;2023-06-04T03:18:35;10.60;;;10.20;;
3050;SDS011;1535;51.098;6.414;2023-06-04T03:21:04;10.63;;;10.23;;
3050;SDS011;1535;51.098;6.414;2023-06-04T03:23:31;10.80;;;10.40;;
3050;SDS011;1535;51.098;6.414;2023-06-04T03:26:00;10.90;;;10.50;;
3050;SDS011;1535;51.098;6.414;2023-06-04T03:28:28;10.60;;;10.20;;
3050;SDS011;1535;51.098;6.414;2023-06-04T03:30:55;9.90;;;9.60;;
3050;SDS011;1535;51.098;6.414;2023-06-04T03:33:22;10.40;;;10.00;;
3050;SDS011;1535;51.098;6.414;2023-06-04T03:35:49;10.87;;;10.47;;
3050;SDS011;1535;51.098;6.414;2023-06-04T03:38:18;11.53;;;10.93;;
3050;SDS011;1535;51.098;6.414;2023-06-04T03:40:45;10.40;;;10.00;;
3050;SDS011;1535;51.098;6.414;2023-06-04T03:43:12;10.97;;;10.57;;
3050;SDS011;1535;51.098;6.414;2023-06-04T03:45:39;11.07;;;10.67;;
3050;SDS011;1535;51.098;6.414;2023-06-04T03:48:06;11.43;;;11.03;;
3050;SDS011;1535;51.098;6.414;2023-06-04T03:50:34;11.00;;;10.60;;
3050;SDS011;1535;51.098;6.414;2023-06-04T03:53:01;9.40;;;9.10;;
3050;SDS011;1535;51.098;6.414;2023-06-04T03:55:31;9.83;;;9.53;;
3050;SDS011;1535;51.098;6.414;2023-06-04T03:57:58;9.73;;;9.43;;
3050;SDS011;1535;51.098;6.414;2023-06-04T04:00:26;11.07;;;10.67;;
3050;SDS011;1535;51.098;6.414;2023-06-04T04:02:53;9.77;;;9.47;;
3050;SDS011;1535;51.098;6.414;2023-06-04T04:05:21;10.83;;;10.43;;
3050;SDS011;1535;51.098;6.414;2023-06-04T04:07:48;9.90;;;9.50;;
3050;SDS011;1535;51.098;6.414;2023-06-04T04:10:16;9.73;;;9.43;;
3050;SDS011;1535;51.098;6.414;2023-06-04T04:12:45;10.03;;;9.63;;
3050;SDS011;1535;51.098;6.414;2023-06-04T04:15:12;10.40;;;10.00;;
3050;SDS011;1535;51.098;6.414;2023-06-04T04:17:40;9.53;;;9.23;;
3050;SDS011;1535;51.098;6.414;2023-06-04T04:20:08;10.10;;;9.80;;
3050;SDS011;1535;51.098;6.414;2023-06-04T04:22:39;9.30;;;9.00;;
3050;SDS011;1535;51.098;6.414;2023-06-04T04:25:07;10.73;;;10.33;;
3050;SDS011;1535;51.098;6.414;2023-06-04T04:27:34;9.87;;;9.57;;
3050;SDS011;1535;51.098;6.414;2023-06-04T04:30:07;11.00;;;10.60;;
3050;SDS011;1535;51.098;6.414;2023-06-04T04:32:35;9.70;;;9.40;;
3050;SDS011;1535;51.098;6.414;2023-06-04T04:35:04;10.03;;;9.73;;
3050;SDS011;1535;51.098;6.414;2023-06-04T04:37:32;10.50;;;10.10;;
3050;SDS011;1535;51.098;6.414;2023-06-04T04:40:05;9.93;;;9.63;;
3050;SDS011;1535;51.098;6.414;2023-06-04T04:42:35;9.73;;;9.43;;
3050;SDS011;1535;51.098;6.414;2023-06-04T04:45:02;10.50;;;10.10;;
3050;SDS011;1535;51.098;6.414;2023-06-04T04:47:32;9.40;;;9.10;;
3050;SDS011;1535;51.098;6.414;2023-06-04T04:49:59;9.60;;;9.30;;
3050;SDS011;1535;51.098;6.414;2023-06-04T04:52:26;10.00;;;9.70;;
3050;SDS011;1535;51.098;6.414;2023-06-04T04:54:53;9.70;;;9.40;;
3050;SDS011;1535;51.098;6.414;2023-06-04T04:57:22;11.43;;;10.67;;
3050;SDS011;1535;51.098;6.414;2023-06-04T04:59:49;10.33;;;9.93;;
3050;SDS011;1535;51.098;6.414;2023-06-04T05:02:16;10.63;;;10.23;;
3050;SDS011;1535;51.098;6.414;2023-06-04T05:04:44;11.13;;;10.73;;
3050;SDS011;1535;51.098;6.414;2023-06-04T05:07:11;10.97;;;10.57;;
3050;SDS011;1535;51.098;6.414;2023-06-04T05:09:38;10.80;;;10.40;;
3050;SDS011;1535;51.098;6.414;2023-06-04T05:12:06;11.97;;;11.50;;
3050;SDS011;1535;51.098;6.414;2023-06-04T05:14:33;11.57;;;11.17;;
3050;SDS011;1535;51.098;6.414;2023-06-04T05:17:01;12.23;;;11.77;;
3050;SDS011;1535;51.098;6.414;2023-06-04T05:19:29;11.13;;;10.73;;
3050;SDS011;1535;51.098;6.414;2023-06-04T05:21:59;11.20;;;10.70;;
3050;SDS011;1535;51.098;6.414;2023-06-04T05:24:26;11.80;;;11.40;;
3050;SDS011;1535;51.098;6.414;2023-06-04T05:26:53;11.93;;;11.43;;
3050;SDS011;1535;51.098;6.414;2023-06-04T05:29:21;12.43;;;11.93;;
3050;SDS011;1535;51.098;6.414;2023-06-04T05:31:48;11.50;;;11.10;;
3050;SDS011;1535;51.098;6.414;2023-06-04T05:34:15;11.97;;;11.47;;
3050;SDS011;1535;51.098;6.414;2023-06-04T05:36:43;12.43;;;11.93;;
3050;SDS011;1535;51.098;6.414;2023-06-04T05:39:12;13.50;;;12.90;;
3050;SDS011;1535;51.098;6.414;2023-06-04T05:41:39;12.53;;;12.03;;
3050;SDS011;1535;51.098;6.414;2023-06-04T05:44:07;13.10;;;12.60;;
3050;SDS011;1535;51.098;6.414;2023-06-04T05:46:35;13.43;;;12.93;;
3050;SDS011;1535;51.098;6.414;2023-06-04T05:49:02;12.90;;;12.40;;
3050;SDS011;1535;51.098;6.414;2023-06-04T05:51:30;13.20;;;12.70;;
3050;SDS011;1535;51.098;6.414;2023-06-04T05:53:57;13.33;;;12.83;;
3050;SDS011;1535;51.098;6.414;2023-06-04T05:56:25;13.53;;;13.00;;
3050;SDS011;1535;51.098;6.414;2023-06-04T05:58:52;13.00;;;12.50;;
3050;SDS011;1535;51.098;6.414;2023-06-04T06:01:19;13.53;;;12.93;;
3050;SDS011;1535;51.098;6.414;2023-06-04T06:03:46;13.87;;;13.27;;
3050;SDS011;1535;51.098;6.414;2023-06-04T06:06:13;13.70;;;13.10;;
3050;SDS011;1535;51.098;6.414;2023-06-04T06:08:40;16.13;;;15.33;;
3050;SDS011;1535;51.098;6.414;2023-06-04T06:11:07;12.80;;;12.30;;
3050;SDS011;1535;51.098;6.414;2023-06-04T06:13:35;13.97;;;13.37;;
3050;SDS011;1535;51.098;6.414;2023-06-04T06:16:03;13.97;;;13.37;;
3050;SDS011;1535;51.098;6.414;2023-06-04T06:18:29;13.50;;;13.00;;
3050;SDS011;1535;51.098;6.414;2023-06-04T06:20:56;14.00;;;13.40;;
3050;SDS011;1535;51.098;6.414;2023-06-04T06:23:23;13.60;;;13.07;;
3050;SDS011;1535;51.098;6.414;2023-06-04T06:25:50;13.10;;;12.60;;
3050;SDS011;1535;51.098;6.414;2023-06-04T06:28:19;13.73;;;12.90;;
3050;SDS011;1535;51.098;6.414;2023-06-04T06:30:48;13.07;;;12.57;;
3050;SDS011;1535;51.098;6.414;2023-06-04T06:33:14;14.00;;;13.03;;
3050;SDS011;1535;51.098;6.414;2023-06-04T06:35:46;13.30;;;12.80;;
3050;SDS011;1535;51.098;6.414;2023-06-04T06:38:13;13.90;;;13.30;;
3050;SDS011;1535;51.098;6.414;2023-06-04T06:40:40;13.00;;;12.50;;
3050;SDS011;1535;51.098;6.414;2023-06-04T06:43:07;13.80;;;13.10;;
3050;SDS011;1535;51.098;6.414;2023-06-04T06:45:35;13.60;;;13.10;;
3050;SDS011;1535;51.098;6.414;2023-06-04T06:48:03;12.70;;;12.20;;
3050;SDS011;1535;51.098;6.414;2023-06-04T06:50:30;14.13;;;13.30;;
3050;SDS011;1535;51.098;6.414;2023-06-04T06:52:58;13.00;;;12.50;;
3050;SDS011;1535;51.098;6.414;2023-06-04T06:55:25;13.63;;;13.03;;
3050;SDS011;1535;51.098;6.414;2023-06-04T06:57:51;12.90;;;12.40;;
3050;SDS011;1535;51.098;6.414;2023-06-04T07:00:18;13.20;;;12.70;;
3050;SDS011;1535;51.098;6.414;2023-06-04T07:02:45;13.50;;;13.00;;
3050;SDS011;1535;51.098;6.414;2023-06-04T07:05:14;13.30;;;12.80;;
3050;SDS011;1535;51.098;6.414;2023-06-04T07:07:43;12.30;;;11.80;;
3050;SDS011;1535;51.098;6.414;2023-06-04T07:10:11;12.67;;;12.17;;
3050;SDS011;1535;51.098;6.414;2023-06-04T07:12:38;12.40;;;11.90;;
3050;SDS011;1535;51.098;6.414;2023-06-04T07:15:06;12.60;;;12.10;;
3050;SDS011;1535;51.098;6.414;2023-06-04T07:17:34;13.20;;;12.40;;
3050;SDS011;1535;51.098;6.414;2023-06-04T07:20:01;13.10;;;12.60;;
3050;SDS011;1535;51.098;6.414;2023-06-04T07:22:30;13.10;;;12.50;;
3050;SDS011;1535;51.098;6.414;2023-06-04T07:24:57;13.00;;;12.50;;
3050;SDS011;1535;51.098;6.414;2023-06-04T07:27:23;13.00;;;12.50;;
3050;SDS011;1535;51.098;6.414;2023-06-04T07:29:51;13.03;;;12.53;;
3050;SDS011;1535;51.098;6.414;2023-06-04T07:32:18;13.30;;;12.73;;
3050;SDS011;1535;51.098;6.414;2023-06-04T07:34:45;13.10;;;12.60;;
3050;SDS011;1535;51.098;6.414;2023-06-04T07:37:11;13.27;;;12.67;;
3050;SDS011;1535;51.098;6.414;2023-06-04T07:39:41;13.30;;;12.80;;
3050;SDS011;1535;51.098;6.414;2023-06-04T07:42:08;13.10;;;12.60;;
3050;SDS011;1535;51.098;6.414;2023-06-04T07:44:36;13.43;;;12.93;;
3050;SDS011;1535;51.098;6.414;2023-06-04T07:47:04;12.77;;;12.27;;
3050;SDS011;1535;51.098;6.414;2023-06-04T07:49:32;13.60;;;13.00;;
3050;SDS011;1535;51.098;6.414;2023-06-04T07:51:59;12.50;;;12.00;;
3050;SDS011;1535;51.098;6.414;2023-06-04T07:54:26;12.60;;;12.10;;
3050;SDS011;1535;51.098;6.414;2023-06-04T07:56:56;13.23;;;12.73;;
3050;SDS011;1535;51.098;6.414;2023-06-04T07:59:23;12.90;;;12.40;;
3050;SDS011;1535;51.098;6.414;2023-06-04T08:01:50;12.90;;;12.40;;
3050;SDS011;1535;51.098;6.414;2023-06-04T08:04:17;13.60;;;13.00;;
3050;SDS011;1535;51.098;6.414;2023-06-04T08:06:45;14.07;;;13.47;;
3050;SDS011;1535;51.098;6.414;2023-06-04T08:09:14;13.70;;;13.00;;
3050;SDS011;1535;51.098;6.414;2023-06-04T08:11:41;12.77;;;12.27;;
3050;SDS011;1535;51.098;6.414;2023-06-04T08:14:11;13.50;;;12.93;;
3050;SDS011;1535;51.098;6.414;2023-06-04T08:16:39;12.90;;;12.40;;
3050;SDS011;1535;51.098;6.414;2023-06-04T08:19:07;12.80;;;12.30;;
3050;SDS011;1535;51.098;6.414;2023-06-04T08:21:33;13.60;;;13.00;;
3050;SDS011;1535;51.098;6.414;2023-06-04T08:24:00;13.33;;;12.83;;
3050;SDS011;1535;51.098;6.414;2023-06-04T08:26:28;13.80;;;13.20;;
3050;SDS011;1535;51.098;6.414;2023-06-04T08:28:56;14.50;;;13.60;;
3050;SDS011;1535;51.098;6.414;2023-06-04T08:31:26;13.10;;;12.60;;
3050;SDS011;1535;51.098;6.414;2023-06-04T08:33:53;12.93;;;12.43;;
3050;SDS011;1535;51.098;6.414;2023-06-04T08:36:21;13.17;;;12.67;;
3050;SDS011;1535;51.098;6.414;2023-06-04T08:38:48;13.50;;;12.90;;
3050;SDS011;1535;51.098;6.414;2023-06-04T08:41:17;12.93;;;12.43;;
3050;SDS011;1535;51.098;6.414;2023-06-04T08:43:52;13.47;;;12.90;;
3050;SDS011;1535;51.098;6.414;2023-06-04T08:46:22;12.80;;;12.30;;
3050;SDS011;1535;51.098;6.414;2023-06-04T08:48:52;13.10;;;12.50;;
3050;SDS011;1535;51.098;6.414;2023-06-04T08:51:22;13.03;;;12.53;;
3050;SDS011;1535;51.098;6.414;2023-06-04T08:53:49;13.77;;;13.20;;
3050;SDS011;1535;51.098;6.414;2023-06-04T08:56:19;14.43;;;13.83;;
3050;SDS011;1535;51.098;6.414;2023-06-04T08:58:47;13.00;;;12.50;;
3050;SDS011;1535;51.098;6.414;2023-06-04T09:01:14;13.03;;;12.53;;
3050;SDS011;1535;51.098;6.414;2023-06-04T09:03:42;13.17;;;12.67;;
3050;SDS011;1535;51.098;6.414;2023-06-04T09:06:10;12.23;;;11.73;;
3050;SDS011;1535;51.098;6.414;2023-06-04T09:08:38;13.10;;;12.60;;
3050;SDS011;1535;51.098;6.414;2023-06-04T09:11:10;13.53;;;12.93;;
3050;SDS011;1535;51.098;6.414;2023-06-04T09:13:40;13.73;;;12.70;;
3050;SDS011;1535;51.098;6.414;2023-06-04T09:16:08;12.73;;;12.13;;
3050;SDS011;1535;51.098;6.414;2023-06-04T09:18:35;12.53;;;12.03;;
3050;SDS011;1535;51.098;6.414;2023-06-04T09:21:04;12.20;;;11.73;;
3050;SDS011;1535;51.098;6.414;2023-06-04T09:23:39;12.23;;;11.77;;
3050;SDS011;1535;51.098;6.414;2023-06-04T09:26:10;13.20;;;12.33;;
3050;SDS011;1535;51.098;6.414;2023-06-04T09:28:39;12.30;;;11.80;;
3050;SDS011;1535;51.098;6.414;2023-06-04T09:31:07;12.83;;;12.33;;
3050;SDS011;1535;51.098;6.414;2023-06-04T09:33:41;12.37;;;11.87;;
3050;SDS011;1535;51.098;6.414;2023-06-04T09:36:09;12.03;;;11.53;;
3050;SDS011;1535;51.098;6.414;2023-06-04T09:38:38;11.63;;;11.23;;
3050;SDS011;1535;51.098;6.414;2023-06-04T09:41:10;12.47;;;11.97;;
3050;SDS011;1535;51.098;6.414;2023-06-04T09:43:38;11.80;;;11.40;;
3050;SDS011;1535;51.098;6.414;2023-06-04T09:46:09;13.00;;;12.40;;
3050;SDS011;1535;51.098;6.414;2023-06-04T09:48:37;13.23;;;12.73;;
3050;SDS011;1535;51.098;6.414;2023-06-04T09:51:08;12.33;;;11.83;;
3050;SDS011;1535;51.098;6.414;2023-06-04T09:53:35;12.50;;;12.00;;
3050;SDS011;1535;51.098;6.414;2023-06-04T09:56:18;12.30;;;11.80;;
3050;SDS011;1535;51.098;6.414;2023-06-04T09:58:46;12.30;;;11.80;;
3050;SDS011;1535;51.098;6.414;2023-06-04T10:01:16;12.70;;;12.10;;
3050;SDS011;1535;51.098;6.414;2023-06-04T10:03:45;12.43;;;11.93;;
3050;SDS011;1535;51.098;6.414;2023-06-04T10:06:14;12.67;;;12.13;;
3050;SDS011;1535;51.098;6.414;2023-06-04T10:08:41;11.73;;;11.33;;
3050;SDS011;1535;51.098;6.414;2023-06-04T10:11:09;12.43;;;11.97;;
3050;SDS011;1535;51.098;6.414;2023-06-04T10:13:41;12.13;;;11.63;;
3050;SDS011;1535;51.098;6.414;2023-06-04T10:16:12;12.70;;;12.20;;
3050;SDS011;1535;51.098;6.414;2023-06-04T10:18:40;12.10;;;11.60;;
3050;SDS011;1535;51.098;6.414;2023-06-04T10:21:07;11.80;;;11.40;;
3050;SDS011;1535;51.098;6.414;2023-06-04T10:23:35;12.30;;;11.80;;
3050;SDS011;1535;51.098;6.414;2023-06-04T10:26:01;12.97;;;12.27;;
3050;SDS011;1535;51.098;6.414;2023-06-04T10:28:28;11.87;;;11.47;;
3050;SDS011;1535;51.098;6.414;2023-06-04T10:30:57;11.97;;;11.57;;
3050;SDS011;1535;51.098;6.414;2023-06-04T10:33:25;12.57;;;12.07;;
3050;SDS011;1535;51.098;6.414;2023-06-04T10:35:53;12.07;;;11.67;;
3050;SDS011;1535;51.098;6.414;2023-06-04T10:38:21;12.70;;;12.20;;
3050;SDS011;1535;51.098;6.414;2023-06-04T10:40:48;12.40;;;11.90;;
3050;SDS011;1535;51.098;6.414;2023-06-04T10:43:16;13.00;;;12.50;;
3050;SDS011;1535;51.098;6.414;2023-06-04T10:45:42;12.30;;;11.80;;
3050;SDS011;1535;51.098;6.414;2023-06-04T10:48:12;12.20;;;11.70;;
3050;SDS011;1535;51.098;6.414;2023-06-04T10:50:49;12.27;;;11.87;;
3050;SDS011;1535;51.098;6.414;2023-06-04T10:53:17;13.30;;;12.67;;
3050;SDS011;1535;51.098;6.414;2023-06-04T10:55:45;12.30;;;11.80;;
3050;SDS011;1535;51.098;6.414;2023-06-04T10:58:12;13.03;;;12.50;;
3050;SDS011;1535;51.098;6.414;2023-06-04T11:00:39;13.63;;;12.83;;
3050;SDS011;1535;51.098;6.414;2023-06-04T11:03:08;12.23;;;11.77;;
3050;SDS011;1535;51.098;6.414;2023-06-04T11:05:38;12.60;;;12.10;;
3050;SDS011;1535;51.098;6.414;2023-06-04T11:08:06;12.60;;;12.10;;
3050;SDS011;1535;51.098;6.414;2023-06-04T11:10:35;13.00;;;12.50;;
3050;SDS011;1535;51.098;6.414;2023-06-04T11:13:03;12.80;;;12.30;;
3050;SDS011;1535;51.098;6.414;2023-06-04T11:15:38;12.83;;;12.33;;
3050;SDS011;1535;51.098;6.414;2023-06-04T11:18:05;13.60;;;13.00;;
3050;SDS011;1535;51.098;6.414;2023-06-04T11:20:32;12.70;;;12.20;;
3050;SDS011;1535;51.098;6.414;2023-06-04T11:23:01;13.47;;;12.67;;
3050;SDS011;1535;51.098;6.414;2023-06-04T11:25:29;12.33;;;11.83;;
3050;SDS011;1535;51.098;6.414;2023-06-04T11:27:58;12.50;;;12.00;;
3050;SDS011;1535;51.098;6.414;2023-06-04T11:30:26;12.80;;;12.30;;
3050;SDS011;1535;51.098;6.414;2023-06-04T11:33:00;12.87;;;12.23;;
3050;SDS011;1535;51.098;6.414;2023-06-04T11:35:28;14.10;;;13.07;;
3050;SDS011;1535;51.098;6.414;2023-06-04T11:37:55;12.47;;;11.97;;
3050;SDS011;1535;51.098;6.414;2023-06-04T11:40:24;13.80;;;13.20;;
3050;SDS011;1535;51.098;6.414;2023-06-04T11:42:52;12.60;;;12.10;;
3050;SDS011;1535;51.098;6.414;2023-06-04T11:45:20;12.97;;;12.47;;
3050;SDS011;1535;51.098;6.414;2023-06-04T11:47:48;13.50;;;13.00;;
3050;SDS011;1535;51.098;6.414;2023-06-04T11:50:15;13.53;;;12.83;;
3050;SDS011;1535;51.098;6.414;2023-06-04T11:52:42;13.03;;;12.53;;
3050;SDS011;1535;51.098;6.414;2023-06-04T11:55:09;13.30;;;12.80;;
3050;SDS011;1535;51.098;6.414;2023-06-04T11:57:39;13.90;;;13.30;;
3050;SDS011;1535;51.098;6.414;2023-06-04T12:00:06;13.07;;;12.57;;
3050;SDS011;1535;51.098;6.414;2023-06-04T12:02:36;13.40;;;12.90;;
3050;SDS011;1535;51.098;6.414;2023-06-04T12:05:12;13.03;;;12.53;;
3050;SDS011;1535;51.098;6.414;2023-06-04T12:07:41;13.10;;;12.60;;
3050;SDS011;1535;51.098;6.414;2023-06-04T12:10:08;13.50;;;12.90;;
3050;SDS011;1535;51.098;6.414;2023-06-04T12:12:36;12.57;;;12.07;;
3050;SDS011;1535;51.098;6.414;2023-06-04T12:15:06;13.20;;;12.60;;
3050;SDS011;1535;51.098;6.414;2023-06-04T12:17:35;12.67;;;12.17;;
3050;SDS011;1535;51.098;6.414;2023-06-04T12:20:03;13.27;;;12.77;;
3050;SDS011;1535;51.098;6.414;2023-06-04T12:22:31;12.77;;;12.27;;
3050;SDS011;1535;51.098;6.414;2023-06-04T12:24:58;13.23;;;12.73;;
3050;SDS011;1535;51.098;6.414;2023-06-04T12:27:27;13.40;;;12.90;;
3050;SDS011;1535;51.098;6.414;2023-06-04T12:29:56;13.10;;;12.60;;
3050;SDS011;1535;51.098;6.414;2023-06-04T12:32:24;13.60;;;13.00;;
3050;SDS011;1535;51.098;6.414;2023-06-04T12:34:51;13.00;;;12.50;;
3050;SDS011;1535;51.098;6.414;2023-06-04T12:37:18;13.57;;;12.97;;
3050;SDS011;1535;51.098;6.414;2023-06-04T12:39:46;13.03;;;12.53;;
3050;SDS011;1535;51.098;6.414;2023-06-04T12:42:12;13.00;;;12.50;;
3050;SDS011;1535;51.098;6.414;2023-06-04T12:44:40;12.57;;;12.07;;
3050;SDS011;1535;51.098;6.414;2023-06-04T12:47:08;13.20;;;12.70;;
3050;SDS011;1535;51.098;6.414;2023-06-04T12:49:36;13.40;;;12.90;;
3050;SDS011;1535;51.098;6.414;2023-06-04T12:52:03;12.90;;;12.40;;
3050;SDS011;1535;51.098;6.414;2023-06-04T12:54:31;13.30;;;12.70;;
3050;SDS011;1535;51.098;6.414;2023-06-04T12:56:58;13.20;;;12.70;;
3050;SDS011;1535;51.098;6.414;2023-06-04T12:59:26;13.13;;;12.63;;
3050;SDS011;1535;51.098;6.414;2023-06-04T13:01:53;12.43;;;11.93;;
3050;SDS011;1535;51.098;6.414;2023-06-04T13:04:22;13.63;;;12.60;;
3050;SDS011;1535;51.098;6.414;2023-06-04T13:06:49;13.03;;;12.53;;
3050;SDS011;1535;51.098;6.414;2023-06-04T13:09:20;12.67;;;12.17;;
3050;SDS011;1535;51.098;6.414;2023-06-04T13:11:48;11.93;;;11.53;;
3050;SDS011;1535;51.098;6.414;2023-06-04T13:14:15;13.47;;;12.77;;
3050;SDS011;1535;51.098;6.414;2023-06-04T13:16:42;12.77;;;12.27;;
3050;SDS011;1535;51.098;6.414;2023-06-04T13:19:10;12.60;;;12.10;;
3050;SDS011;1535;51.098;6.414;2023-06-04T13:21:38;12.40;;;11.90;;
3050;SDS011;1535;51.098;6.414;2023-06-04T13:24:05;12.90;;;12.40;;
3050;SDS011;1535;51.098;6.414;2023-06-04T13:26:33;12.70;;;12.20;;
3050;SDS011;1535;51.098;6.414;2023-06-04T13:29:00;12.60;;;12.10;;
3050;SDS011;1535;51.098;6.414;2023-06-04T13:31:27;15.53;;;14.70;;
3050;SDS011;1535;51.098;6.414;2023-06-04T13:33:53;12.80;;;12.20;;
3050;SDS011;1535;51.098;6.414;2023-06-04T13:36:20;12.60;;;12.10;;
3050;SDS011;1535;51.098;6.414;2023-06-04T13:38:49;12.50;;;12.00;;
3050;SDS011;1535;51.098;6.414;2023-06-04T13:41:17;13.50;;;12.90;;
3050;SDS011;1535;51.098;6.414;2023-06-04T13:43:46;12.10;;;11.70;;
3050;SDS011;1535;51.098;6.414;2023-06-04T13:46:12;13.30;;;12.80;;
3050;SDS011;1535;51.098;6.414;2023-06-04T13:48:41;11.97;;;11.57;;
3050;SDS011;1535;51.098;6.414;2023-06-04T13:51:07;12.60;;;12.10;;
3050;SDS011;1535;51.098;6.414;2023-06-04T13:53:34;12.60;;;12.10;;
3050;SDS011;1535;51.098;6.414;2023-06-04T13:56:03;13.33;;;12.83;;
3050;SDS011;1535;51.098;6.414;2023-06-04T13:58:30;13.60;;;13.10;;
3050;SDS011;1535;51.098;6.414;2023-06-04T14:00:57;12.40;;;11.90;;
3050;SDS011;1535;51.098;6.414;2023-06-04T14:03:24;12.40;;;11.90;;
3050;SDS011;1535;51.098;6.414;2023-06-04T14:05:51;12.23;;;11.73;;
3050;SDS011;1535;51.098;6.414;2023-06-04T14:08:17;13.30;;;12.73;;
3050;SDS011;1535;51.098;6.414;2023-06-04T14:10:44;12.00;;;11.60;;
3050;SDS011;1535;51.098;6.414;2023-06-04T14:13:14;12.20;;;11.70;;
3050;SDS011;1535;51.098;6.414;2023-06-04T14:15:40;12.40;;;11.90;;
3050;SDS011;1535;51.098;6.414;2023-06-04T14:18:07;11.80;;;11.40;;
3050;SDS011;1535;51.098;6.414;2023-06-04T14:20:34;14.03;;;13.33;;
3050;SDS011;1535;51.098;6.414;2023-06-04T14:23:02;11.60;;;11.20;;
3050;SDS011;1535;51.098;6.414;2023-06-04T14:25:29;12.20;;;11.70;;
3050;SDS011;1535;51.098;6.414;2023-06-04T14:28:00;12.40;;;11.90;;
3050;SDS011;1535;51.098;6.414;2023-06-04T14:30:29;11.97;;;11.57;;
3050;SDS011;1535;51.098;6.414;2023-06-04T14:32:56;13.17;;;12.40;;
3050;SDS011;1535;51.098;6.414;2023-06-04T14:35:22;12.50;;;12.00;;
3050;SDS011;1535;51.098;6.414;2023-06-04T14:37:49;14.13;;;13.20;;
3050;SDS011;1535;51.098;6.414;2023-06-04T14:40:17;12.83;;;12.33;;
3050;SDS011;1535;51.098;6.414;2023-06-04T14:42:44;12.43;;;11.93;;
3050;SDS011;1535;51.098;6.414;2023-06-04T14:45:11;12.53;;;12.03;;
3050;SDS011;1535;51.098;6.414;2023-06-04T14:47:39;12.47;;;11.97;;
3050;SDS011;1535;51.098;6.414;2023-06-04T14:50:06;12.20;;;11.70;;
3050;SDS011;1535;51.098;6.414;2023-06-04T14:52:34;11.93;;;11.53;;
3050;SDS011;1535;51.098;6.414;2023-06-04T14:55:03;11.80;;;11.30;;